Time;durP1;ratioP1;P1;durP2;ratioP2;P2;SDS_P1;SDS_P2;PMS_P1;PMS_P2;Temp;Humidity;BMP_temperature;BMP_pressure;BME280_temperature;BME280_humidity;BME280_pressure;Samples;Min_cycle;Max_cycle;Signal;HPM_P1;HPM_P2
2021/06/12 00:00:57;;;;;;;;;;;;;;;;;;3554923;27;19927;-41
2021/06/12 00:02:38;;;;;;;;;;;;;;;;;;3556677;27;19927;-41
2021/06/12 00:04:19;;;;;;;;;;;;;;;;;;3555341;27;20414;-41
2021/06/12 00:06:00;;;;;;;;;;;;;;;;;;3557865;27;19962;-41
2021/06/12 00:07:41;;;;;;;;;;;;;;;;;;3555426;27;20371;-41
2021/06/12 00:09:22;;;;;;;;;;;;;;;;;;3558078;27;19931;-41
2021/06/12 00:11:03;;;;;;;;;;;;;;;;;;3557597;27;19927;-41
2021/06/12 00:12:44;;;;;;;;;;;;;;;;;;3554989;27;19934;-41
2021/06/12 00:14:25;;;;;;;;;;;;;;;;;;3560994;27;19931;-41
2021/06/12 00:16:06;;;;;;;;;;;;;;;;;;3554953;27;19966;-41
2021/06/12 00:17:47;;;;;;;;;;;;;;;;;;3555879;27;20417;-41
2021/06/12 00:19:28;;;;;;;;;;;;;;;;;;3555445;27;19975;-41
2021/06/12 00:21:09;;;;;;;;;;;;;;;;;;3556715;27;20384;-41
2021/06/12 00:22:50;;;;;;;;;;;;;;;;;;3556961;27;19931;-41
2021/06/12 00:24:31;;;;;;;;;;;;;;;;;;3554876;27;19934;-41
2021/06/12 00:26:12;;;;;;;;;;;;;;;;;;3557420;27;19926;-41
2021/06/12 00:27:53;;;;;;;;;;;;;;;;;;3555126;27;19931;-41
2021/06/12 00:29:34;;;;;;;;;;;;;;;;;;3557535;27;19934;-41
2021/06/12 00:31:15;;;;;;;;;;;;;;;;;;3555034;27;19927;-41
2021/06/12 00:32:56;;;;;;;;;;;;;;;;;;3556220;27;19927;-41
2021/06/12 00:34:37;;;;;;;;;;;;;;;;;;3554707;27;19971;-41
2021/06/12 00:36:19;;;;;;;;;;;;;;;;;;3556489;27;19934;-41
2021/06/12 00:38:00;;;;;;;;;;;;;;;;;;3557672;27;20448;-41
2021/06/12 00:39:41;;;;;;;;;;;;;;;;;;3554727;27;20034;-41
2021/06/12 00:41:22;;;;;;;;;;;;;;;;;;3555926;27;19979;-41
2021/06/12 00:43:03;;;;;;;;;;;;;;;;;;3554859;27;19954;-41
2021/06/12 00:44:44;;;;;;;;;;;;;;;;;;3556008;27;20128;-41
2021/06/12 00:46:25;;;;;;;;;;;;;;;;;;3555760;27;19927;-41
2021/06/12 00:48:06;;;;;;;;;;;;;;;;;;3556601;27;20009;-41
2021/06/12 00:49:47;;;;;;;;;;;;;;;;;;3557513;27;19961;-41
2021/06/12 00:51:28;;;;;;;;;;;;;;;;;;3554671;27;20292;-41
2021/06/12 00:53:08;;;;;;;;;;;;;;;;;;3557187;27;19933;-41
2021/06/12 00:54:49;;;;;;;;;;;;;;;;;;3555000;27;19934;-41
2021/06/12 00:56:30;;;;;;;;;;;;;;;;;;3556128;27;19962;-41
2021/06/12 00:58:11;;;;;;;;;;;;;;;;;;3554670;27;20021;-41
2021/06/12 00:59:52;;;;;;;;;;;;;;;;;;3557263;27;19927;-41
2021/06/12 01:01:33;;;;;;;;;;;;;;;;;;3556396;27;19930;-41
2021/06/12 01:03:14;;;;;;;;;;;;;;;;;;3554329;27;20042;-41
2021/06/12 01:04:55;;;;;;;;;;;;;;;;;;3557222;27;19927;-43
2021/06/12 01:06:36;;;;;;;;;;;;;;;;;;3554123;27;19973;-44
2021/06/12 01:08:17;;;;;;;;;;;;;;;;;;3557041;27;20018;-43
2021/06/12 01:09:57;;;;;;;;;;;;;;;;;;3554537;27;19941;-43
2021/06/12 01:11:40;;;;;;;;;;;;;;;;;;3557129;27;20021;-43
2021/06/12 01:13:25;;;;;;;;;;;;;;;;;;3554746;27;20357;-43
2021/06/12 01:15:05;;;;;;;;;;;;;;;;;;3554450;27;19926;-43
2021/06/12 01:16:46;;;;;;;;;;;;;;;;;;3555932;27;20303;-44
2021/06/12 01:18:27;;;;;;;;;;;;;;;;;;3554675;27;20395;-44
2021/06/12 01:20:08;;;;;;;;;;;;;;;;;;3555851;27;19927;-43
2021/06/12 01:21:49;;;;;;;;;;;;;;;;;;3554398;27;19927;-43
2021/06/12 01:23:30;;;;;;;;;;;;;;;;;;3555484;27;19927;-44
2021/06/12 01:25:11;;;;;;;;;;;;;;;;;;3554761;27;19931;-43
2021/06/12 01:26:52;;;;;;;;;;;;;;;;;;3555059;27;19963;-43
2021/06/12 01:28:33;;;;;;;;;;;;;;;;;;3554550;27;19934;-43
2021/06/12 01:30:15;;;;;;;;;;;;;;;;;;3554226;27;19931;-44
2021/06/12 01:31:56;;;;;;;;;;;;;;;;;;3555560;27;20029;-44
2021/06/12 01:33:37;;;;;;;;;;;;;;;;;;3554387;27;20310;-44
2021/06/12 01:35:18;;;;;;;;;;;;;;;;;;3557020;27;20014;-44
2021/06/12 01:36:59;;;;;;;;;;;;;;;;;;3556067;27;19934;-44
2021/06/12 01:38:43;;;;;;;;;;;;;;;;;;3554916;27;19927;-43
2021/06/12 01:40:26;;;;;;;;;;;;;;;;;;3555957;27;20033;-44
2021/06/12 01:42:07;;;;;;;;;;;;;;;;;;3554284;27;19931;-44
2021/06/12 01:43:48;;;;;;;;;;;;;;;;;;3556615;27;19971;-45
2021/06/12 01:45:29;;;;;;;;;;;;;;;;;;3554379;27;20025;-43
2021/06/12 01:47:09;;;;;;;;;;;;;;;;;;3556574;27;20437;-45
2021/06/12 01:48:50;;;;;;;;;;;;;;;;;;3554286;27;20003;-43
2021/06/12 01:50:31;;;;;;;;;;;;;;;;;;3554879;27;19927;-44
2021/06/12 01:52:12;;;;;;;;;;;;;;;;;;3556760;27;19989;-43
2021/06/12 01:53:53;;;;;;;;;;;;;;;;;;3554257;27;19941;-43
2021/06/12 01:55:34;;;;;;;;;;;;;;;;;;3555552;27;20033;-44
2021/06/12 01:57:15;;;;;;;;;;;;;;;;;;3554001;27;19966;-43
2021/06/12 01:58:56;;;;;;;;;;;;;;;;;;3556721;27;19927;-48
2021/06/12 02:00:37;;;;;;;;;;;;;;;;;;3554993;27;19975;-47
2021/06/12 02:02:17;;;;;;;;;;;;;;;;;;3553268;27;19931;-47
2021/06/12 02:04:00;;;;;;;;;;;;;;;;;;3555649;27;20387;-46
2021/06/12 02:05:41;;;;;;;;;;;;;;;;;;3553843;27;19980;-46
2021/06/12 02:07:21;;;;;;;;;;;;;;;;;;3554906;27;19927;-47
2021/06/12 02:09:02;;;;;;;;;;;;;;;;;;3554399;27;20033;-44
2021/06/12 02:10:43;;;;;;;;;;;;;;;;;;3558093;27;20400;-43
2021/06/12 02:12:24;;;;;;;;;;;;;;;;;;3554307;27;20030;-43
2021/06/12 02:14:05;;;;;;;;;;;;;;;;;;3562923;27;20302;-43
2021/06/12 02:15:46;;;;;;;;;;;;;;;;;;3565425;27;19927;-44
2021/06/12 02:17:27;;;;;;;;;;;;;;;;;;3553700;27;19971;-44
2021/06/12 02:19:08;;;;;;;;;;;;;;;;;;3556356;27;19981;-46
2021/06/12 02:20:49;;;;;;;;;;;;;;;;;;3553887;27;19927;-47
2021/06/12 02:22:30;;;;;;;;;;;;;;;;;;3556375;27;19979;-47
2021/06/12 02:24:10;;;;;;;;;;;;;;;;;;3553679;27;19934;-47
2021/06/12 02:25:52;;;;;;;;;;;;;;;;;;3555171;27;20090;-47
2021/06/12 02:27:33;;;;;;;;;;;;;;;;;;3555699;27;20009;-46
2021/06/12 02:29:13;;;;;;;;;;;;;;;;;;3553661;27;19976;-47
2021/06/12 02:30:54;;;;;;;;;;;;;;;;;;3556645;27;19927;-44
2021/06/12 02:32:35;;;;;;;;;;;;;;;;;;3553766;27;19927;-44
2021/06/12 02:34:16;;;;;;;;;;;;;;;;;;3554964;27;19983;-43
2021/06/12 02:35:57;;;;;;;;;;;;;;;;;;3553646;27;19971;-43
2021/06/12 02:37:38;;;;;;;;;;;;;;;;;;3554901;27;20015;-43
2021/06/12 02:39:19;;;;;;;;;;;;;;;;;;3555628;27;20311;-44
2021/06/12 02:41:00;;;;;;;;;;;;;;;;;;3553144;27;19934;-45
2021/06/12 02:42:41;;;;;;;;;;;;;;;;;;3556299;27;19933;-44
2021/06/12 02:44:22;;;;;;;;;;;;;;;;;;3553677;27;19949;-44
2021/06/12 02:46:03;;;;;;;;;;;;;;;;;;3555895;27;20231;-43
2021/06/12 02:47:44;;;;;;;;;;;;;;;;;;3553452;27;19959;-43
2021/06/12 02:49:25;;;;;;;;;;;;;;;;;;3556226;27;19927;-44
2021/06/12 02:51:06;;;;;;;;;;;;;;;;;;3553178;27;19927;-43
2021/06/12 02:52:47;;;;;;;;;;;;;;;;;;3553506;27;20027;-45
2021/06/12 02:54:28;;;;;;;;;;;;;;;;;;3556424;27;19938;-44
2021/06/12 02:56:08;;;;;;;;;;;;;;;;;;3553131;27;20422;-44
2021/06/12 02:57:49;;;;;;;;;;;;;;;;;;3555802;27;19934;-44
2021/06/12 02:59:30;;;;;;;;;;;;;;;;;;3553581;27;19958;-44
2021/06/12 03:01:11;;;;;;;;;;;;;;;;;;3554546;27;19962;-44
2021/06/12 03:02:52;;;;;;;;;;;;;;;;;;3553939;27;19931;-43
2021/06/12 03:04:33;;;;;;;;;;;;;;;;;;3555133;27;19942;-43
2021/06/12 03:06:14;;;;;;;;;;;;;;;;;;3558635;27;19933;-46
2021/06/12 03:07:55;;;;;;;;;;;;;;;;;;3553083;27;19927;-45
2021/06/12 03:09:37;;;;;;;;;;;;;;;;;;3555917;27;19999;-44
2021/06/12 03:11:18;;;;;;;;;;;;;;;;;;3553184;27;20391;-44
2021/06/12 03:12:59;;;;;;;;;;;;;;;;;;3553311;27;20021;-44
2021/06/12 03:14:40;;;;;;;;;;;;;;;;;;3567235;27;20391;-44
2021/06/12 03:16:20;;;;;;;;;;;;;;;;;;3554871;27;20026;-44
2021/06/12 03:18:03;;;;;;;;;;;;;;;;;;3556026;27;20365;-43
2021/06/12 03:19:44;;;;;;;;;;;;;;;;;;3554067;27;19938;-44
2021/06/12 03:21:25;;;;;;;;;;;;;;;;;;3554524;27;19966;-44
2021/06/12 03:23:06;;;;;;;;;;;;;;;;;;3553343;27;19970;-44
2021/06/12 03:24:47;;;;;;;;;;;;;;;;;;3554141;27;19927;-44
2021/06/12 03:26:28;;;;;;;;;;;;;;;;;;3553155;27;19972;-44
2021/06/12 03:28:09;;;;;;;;;;;;;;;;;;3555415;27;20404;-44
2021/06/12 03:29:50;;;;;;;;;;;;;;;;;;3554959;27;19926;-44
2021/06/12 03:31:30;;;;;;;;;;;;;;;;;;3553009;27;19934;-44
2021/06/12 03:33:11;;;;;;;;;;;;;;;;;;3554275;27;19931;-44
2021/06/12 03:34:52;;;;;;;;;;;;;;;;;;3553043;27;19931;-44
2021/06/12 03:36:33;;;;;;;;;;;;;;;;;;3554596;27;20465;-44
2021/06/12 03:38:14;;;;;;;;;;;;;;;;;;3552929;27;19933;-44
2021/06/12 03:39:55;;;;;;;;;;;;;;;;;;3555528;27;19962;-44
2021/06/12 03:41:36;;;;;;;;;;;;;;;;;;3553236;27;19927;-44
2021/06/12 03:43:17;;;;;;;;;;;;;;;;;;3553592;27;19927;-44
2021/06/12 03:44:58;;;;;;;;;;;;;;;;;;3555564;27;20040;-44
2021/06/12 03:46:39;;;;;;;;;;;;;;;;;;3552858;27;19983;-44
2021/06/12 03:48:20;;;;;;;;;;;;;;;;;;3554420;27;20009;-45
2021/06/12 03:50:01;;;;;;;;;;;;;;;;;;3553062;27;20352;-45
2021/06/12 03:51:42;;;;;;;;;;;;;;;;;;3554182;27;20460;-45
2021/06/12 03:53:29;;;;;;;;;;;;;;;;;;3552589;27;19927;-44
2021/06/12 03:55:10;;;;;;;;;;;;;;;;;;3552649;27;19970;-46
2021/06/12 03:56:51;;;;;;;;;;;;;;;;;;3554212;27;20464;-44
2021/06/12 03:58:32;;;;;;;;;;;;;;;;;;3552829;27;19940;-45
2021/06/12 04:00:13;;;;;;;;;;;;;;;;;;3555439;27;19927;-44
2021/06/12 04:01:56;;;;;;;;;;;;;;;;;;3555360;27;19972;-43
2021/06/12 04:03:37;;;;;;;;;;;;;;;;;;3554288;27;19966;-43
2021/06/12 04:05:18;;;;;;;;;;;;;;;;;;3554117;27;19948;-43
2021/06/12 04:06:59;;;;;;;;;;;;;;;;;;3553462;27;19940;-45
2021/06/12 04:08:40;;;;;;;;;;;;;;;;;;3555782;27;19937;-43
2021/06/12 04:10:21;;;;;;;;;;;;;;;;;;3553018;27;20388;-45
2021/06/12 04:12:02;;;;;;;;;;;;;;;;;;3553917;27;19931;-44
2021/06/12 04:13:43;;;;;;;;;;;;;;;;;;3557717;27;19926;-47
2021/06/12 04:15:24;;;;;;;;;;;;;;;;;;3557617;27;19968;-46
2021/06/12 04:17:04;;;;;;;;;;;;;;;;;;3553395;27;20546;-47
2021/06/12 04:18:45;;;;;;;;;;;;;;;;;;3552912;27;19927;-47
2021/06/12 04:20:26;;;;;;;;;;;;;;;;;;3555594;27;19948;-49
2021/06/12 04:22:07;;;;;;;;;;;;;;;;;;3552433;27;19931;-47
2021/06/12 04:23:48;;;;;;;;;;;;;;;;;;3553862;27;19927;-46
2021/06/12 04:25:29;;;;;;;;;;;;;;;;;;3552537;27;20348;-46
2021/06/12 04:27:10;;;;;;;;;;;;;;;;;;3554885;27;19927;-49
2021/06/12 04:28:51;;;;;;;;;;;;;;;;;;3552755;27;19962;-45
2021/06/12 04:30:32;;;;;;;;;;;;;;;;;;3554903;27;20411;-47
2021/06/12 04:32:13;;;;;;;;;;;;;;;;;;3554379;27;19927;-45
2021/06/12 04:33:54;;;;;;;;;;;;;;;;;;3553252;27;19954;-44
2021/06/12 04:35:35;;;;;;;;;;;;;;;;;;3556330;27;19926;-46
2021/06/12 04:37:16;;;;;;;;;;;;;;;;;;3552679;27;19973;-47
2021/06/12 04:38:57;;;;;;;;;;;;;;;;;;3554877;27;20009;-47
2021/06/12 04:40:38;;;;;;;;;;;;;;;;;;3552465;27;20451;-46
2021/06/12 04:42:19;;;;;;;;;;;;;;;;;;3554537;27;19930;-45
2021/06/12 04:44:00;;;;;;;;;;;;;;;;;;3557116;27;19926;-46
2021/06/12 04:45:41;;;;;;;;;;;;;;;;;;3555172;27;19931;-46
2021/06/12 04:47:22;;;;;;;;;;;;;;;;;;3557489;27;20403;-46
2021/06/12 04:49:03;;;;;;;;;;;;;;;;;;3554839;27;19927;-46
2021/06/12 04:50:44;;;;;;;;;;;;;;;;;;3556135;27;20029;-46
2021/06/12 04:52:25;;;;;;;;;;;;;;;;;;3555117;27;20022;-44
2021/06/12 04:54:06;;;;;;;;;;;;;;;;;;3557394;27;19934;-44
2021/06/12 04:55:46;;;;;;;;;;;;;;;;;;3555376;27;19949;-45
2021/06/12 04:57:27;;;;;;;;;;;;;;;;;;3555907;27;20440;-46
2021/06/12 04:59:08;;;;;;;;;;;;;;;;;;3562017;27;19927;-47
2021/06/12 05:00:51;;;;;;;;;;;;;;;;;;3554650;27;20017;-47
2021/06/12 05:02:33;;;;;;;;;;;;;;;;;;3557226;27;20408;-47
2021/06/12 05:04:13;;;;;;;;;;;;;;;;;;3554855;27;19931;-49
2021/06/12 05:05:54;;;;;;;;;;;;;;;;;;3555876;27;19938;-50
2021/06/12 05:07:35;;;;;;;;;;;;;;;;;;3557056;27;19927;-45
2021/06/12 05:09:16;;;;;;;;;;;;;;;;;;3556228;27;19970;-44
2021/06/12 05:10:57;;;;;;;;;;;;;;;;;;3555895;27;19934;-44
2021/06/12 05:12:38;;;;;;;;;;;;;;;;;;3554519;27;19974;-45
2021/06/12 05:14:19;;;;;;;;;;;;;;;;;;3555859;27;19934;-45
2021/06/12 05:16:00;;;;;;;;;;;;;;;;;;3554354;27;20452;-46
2021/06/12 05:17:41;;;;;;;;;;;;;;;;;;3557785;27;19927;-45
2021/06/12 05:19:22;;;;;;;;;;;;;;;;;;3557310;27;20050;-45
2021/06/12 05:21:03;;;;;;;;;;;;;;;;;;3554071;27;20479;-43
2021/06/12 05:22:44;;;;;;;;;;;;;;;;;;3555983;27;19962;-44
2021/06/12 05:24:25;;;;;;;;;;;;;;;;;;3554442;27;19934;-44
2021/06/12 05:26:06;;;;;;;;;;;;;;;;;;3555572;27;19967;-45
2021/06/12 05:27:47;;;;;;;;;;;;;;;;;;3554617;27;20385;-45
2021/06/12 05:29:28;;;;;;;;;;;;;;;;;;3556964;27;19927;-47
2021/06/12 05:31:09;;;;;;;;;;;;;;;;;;3554766;27;20025;-47
2021/06/12 05:32:50;;;;;;;;;;;;;;;;;;3554896;27;19934;-46
2021/06/12 05:34:31;;;;;;;;;;;;;;;;;;3557183;27;20014;-45
2021/06/12 05:36:12;;;;;;;;;;;;;;;;;;3554843;27;20025;-46
2021/06/12 05:37:53;;;;;;;;;;;;;;;;;;3554437;27;19931;-44
2021/06/12 05:39:34;;;;;;;;;;;;;;;;;;3554542;27;19931;-45
2021/06/12 05:41:15;;;;;;;;;;;;;;;;;;3557004;27;20018;-46
2021/06/12 05:42:56;;;;;;;;;;;;;;;;;;3554413;27;19950;-45
2021/06/12 05:44:37;;;;;;;;;;;;;;;;;;3554511;27;19934;-47
2021/06/12 05:46:18;;;;;;;;;;;;;;;;;;3555661;27;20441;-47
2021/06/12 05:47:59;;;;;;;;;;;;;;;;;;3554500;27;20406;-47
2021/06/12 05:49:40;;;;;;;;;;;;;;;;;;3555340;27;19931;-47
2021/06/12 05:51:21;;;;;;;;;;;;;;;;;;3554369;27;19972;-45
2021/06/12 05:53:02;;;;;;;;;;;;;;;;;;3555138;27;20015;-46
2021/06/12 05:54:43;;;;;;;;;;;;;;;;;;3557020;27;19995;-48
2021/06/12 05:56:23;;;;;;;;;;;;;;;;;;3553782;27;20029;-46
2021/06/12 05:58:04;;;;;;;;;;;;;;;;;;3556578;27;19927;-46
2021/06/12 05:59:45;;;;;;;;;;;;;;;;;;3554073;27;19942;-47
2021/06/12 06:01:26;;;;;;;;;;;;;;;;;;3555331;27;19974;-48
2021/06/12 06:03:07;;;;;;;;;;;;;;;;;;3554110;27;19985;-46
2021/06/12 06:04:49;;;;;;;;;;;;;;;;;;3555310;27;19941;-46
2021/06/12 06:06:30;;;;;;;;;;;;;;;;;;3556116;27;20411;-45
2021/06/12 06:08:11;;;;;;;;;;;;;;;;;;3555357;27;19958;-45
2021/06/12 06:09:52;;;;;;;;;;;;;;;;;;3555256;27;19970;-46
2021/06/12 06:11:33;;;;;;;;;;;;;;;;;;3553800;27;19934;-46
2021/06/12 06:13:14;;;;;;;;;;;;;;;;;;3556202;27;19931;-46
2021/06/12 06:14:55;;;;;;;;;;;;;;;;;;3568211;27;19937;-46
2021/06/12 06:16:36;;;;;;;;;;;;;;;;;;3557883;27;19927;-47
2021/06/12 06:18:17;;;;;;;;;;;;;;;;;;3554805;27;19934;-48
2021/06/12 06:19:58;;;;;;;;;;;;;;;;;;3554553;27;20367;-47
2021/06/12 06:21:39;;;;;;;;;;;;;;;;;;3555542;27;20029;-45
2021/06/12 06:23:19;;;;;;;;;;;;;;;;;;3553856;27;19934;-45
2021/06/12 06:25:01;;;;;;;;;;;;;;;;;;3554341;27;20058;-46
2021/06/12 06:26:42;;;;;;;;;;;;;;;;;;3553892;27;20417;-47
2021/06/12 06:28:23;;;;;;;;;;;;;;;;;;3556697;27;19927;-45
2021/06/12 06:30:03;;;;;;;;;;;;;;;;;;3555129;27;20406;-47
2021/06/12 06:31:45;;;;;;;;;;;;;;;;;;3554529;27;19978;-48
2021/06/12 06:33:26;;;;;;;;;;;;;;;;;;3556854;27;19926;-48
2021/06/12 06:35:07;;;;;;;;;;;;;;;;;;3553374;27;20347;-48
2021/06/12 06:36:48;;;;;;;;;;;;;;;;;;3556335;27;19933;-47
2021/06/12 06:38:29;;;;;;;;;;;;;;;;;;3553950;27;20315;-46
2021/06/12 06:40:10;;;;;;;;;;;;;;;;;;3556135;27;20411;-44
2021/06/12 06:41:51;;;;;;;;;;;;;;;;;;3554326;27;19941;-46
2021/06/12 06:43:32;;;;;;;;;;;;;;;;;;3556052;27;19927;-45
2021/06/12 06:45:13;;;;;;;;;;;;;;;;;;3555338;27;19926;-47
2021/06/12 06:46:54;;;;;;;;;;;;;;;;;;3553447;27;20559;-46
2021/06/12 06:48:35;;;;;;;;;;;;;;;;;;3554176;27;19931;-47
2021/06/12 06:50:16;;;;;;;;;;;;;;;;;;3553926;27;19954;-48
2021/06/12 06:51:57;;;;;;;;;;;;;;;;;;3555665;27;20053;-46
2021/06/12 06:53:38;;;;;;;;;;;;;;;;;;3555097;27;20045;-47
2021/06/12 06:55:19;;;;;;;;;;;;;;;;;;3554196;27;20015;-43
2021/06/12 06:57:00;;;;;;;;;;;;;;;;;;3553768;27;19927;-46
2021/06/12 06:58:41;;;;;;;;;;;;;;;;;;3553156;27;19954;-45
2021/06/12 07:00:23;;;;;;;;;;;;;;;;;;3556107;27;19969;-46
2021/06/12 07:02:04;;;;;;;;;;;;;;;;;;3553848;27;20005;-44
2021/06/12 07:03:45;;;;;;;;;;;;;;;;;;3555347;27;19931;-45
2021/06/12 07:05:29;;;;;;;;;;;;;;;;;;3554229;27;19927;-45
2021/06/12 07:07:10;;;;;;;;;;;;;;;;;;3554242;27;20029;-43
2021/06/12 07:08:51;;;;;;;;;;;;;;;;;;3554992;27;19934;-43
2021/06/12 07:10:32;;;;;;;;;;;;;;;;;;3553934;27;20033;-45
2021/06/12 07:12:13;;;;;;;;;;;;;;;;;;3554491;27;20382;-45
2021/06/12 07:13:54;;;;;;;;;;;;;;;;;;3559866;27;19945;-45
2021/06/12 07:15:35;;;;;;;;;;;;;;;;;;3557927;27;19931;-45
2021/06/12 07:17:16;;;;;;;;;;;;;;;;;;3554824;27;19977;-43
2021/06/12 07:18:57;;;;;;;;;;;;;;;;;;3553660;27;19927;-43
2021/06/12 07:20:38;;;;;;;;;;;;;;;;;;3556132;27;20395;-45
2021/06/12 07:22:19;;;;;;;;;;;;;;;;;;3553878;27;19981;-43
2021/06/12 07:24:00;;;;;;;;;;;;;;;;;;3553544;27;19927;-44
2021/06/12 07:25:41;;;;;;;;;;;;;;;;;;3554026;27;20064;-43
2021/06/12 07:27:22;;;;;;;;;;;;;;;;;;3554347;27;20009;-44
2021/06/12 07:29:03;;;;;;;;;;;;;;;;;;3552591;27;19927;-44
2021/06/12 07:30:50;;;;;;;;;;;;;;;;;;3552944;27;19927;-46
2021/06/12 07:32:30;;;;;;;;;;;;;;;;;;3554562;27;20403;-45
2021/06/12 07:34:11;;;;;;;;;;;;;;;;;;3553333;27;19934;-44
2021/06/12 07:35:53;;;;;;;;;;;;;;;;;;3554532;27;19940;-44
2021/06/12 07:37:34;;;;;;;;;;;;;;;;;;3553067;27;20400;-43
2021/06/12 07:39:15;;;;;;;;;;;;;;;;;;3555369;27;19937;-44
2021/06/12 07:40:56;;;;;;;;;;;;;;;;;;3552947;27;19930;-46
2021/06/12 07:42:36;;;;;;;;;;;;;;;;;;3555010;27;20013;-45
2021/06/12 07:44:18;;;;;;;;;;;;;;;;;;3556121;27;20375;-44
2021/06/12 07:45:59;;;;;;;;;;;;;;;;;;3552431;27;20391;-44
2021/06/12 07:47:40;;;;;;;;;;;;;;;;;;3556527;27;19959;-45
2021/06/12 07:49:21;;;;;;;;;;;;;;;;;;3553354;27;20439;-45
2021/06/12 07:51:02;;;;;;;;;;;;;;;;;;3555709;27;19927;-43
2021/06/12 07:52:43;;;;;;;;;;;;;;;;;;3552678;27;19927;-43
2021/06/12 07:54:24;;;;;;;;;;;;;;;;;;3555523;27;20022;-46
2021/06/12 07:56:05;;;;;;;;;;;;;;;;;;3554647;27;19927;-45
2021/06/12 07:57:46;;;;;;;;;;;;;;;;;;3552803;27;19926;-46
2021/06/12 07:59:27;;;;;;;;;;;;;;;;;;3555459;27;19974;-45
2021/06/12 08:01:08;;;;;;;;;;;;;;;;;;3552556;27;19954;-44
2021/06/12 08:02:49;;;;;;;;;;;;;;;;;;3555873;27;19927;-49
2021/06/12 08:04:30;;;;;;;;;;;;;;;;;;3553206;27;20001;-45
2021/06/12 08:06:11;;;;;;;;;;;;;;;;;;3555723;27;19927;-43
2021/06/12 08:07:52;;;;;;;;;;;;;;;;;;3554753;27;20017;-43
2021/06/12 08:09:34;;;;;;;;;;;;;;;;;;3553560;27;19980;-45
2021/06/12 08:11:15;;;;;;;;;;;;;;;;;;3555658;27;20302;-48
2021/06/12 08:12:55;;;;;;;;;;;;;;;;;;3552556;27;19927;-46
2021/06/12 08:14:36;;;;;;;;;;;;;;;;;;3557005;27;19966;-45
2021/06/12 08:16:17;;;;;;;;;;;;;;;;;;3553830;27;19934;-45
2021/06/12 08:17:58;;;;;;;;;;;;;;;;;;3557882;27;19991;-43
2021/06/12 08:19:40;;;;;;;;;;;;;;;;;;3556821;27;20026;-43
2021/06/12 08:21:21;;;;;;;;;;;;;;;;;;3555011;27;19926;-44
2021/06/12 08:23:02;;;;;;;;;;;;;;;;;;3557938;27;20534;-43
2021/06/12 08:24:43;;;;;;;;;;;;;;;;;;3555398;27;19927;-43
2021/06/12 08:26:24;;;;;;;;;;;;;;;;;;3556408;27;20379;-44
2021/06/12 08:28:05;;;;;;;;;;;;;;;;;;3555093;27;19931;-44
2021/06/12 08:29:48;;;;;;;;;;;;;;;;;;3554959;27;20396;-44
2021/06/12 08:31:29;;;;;;;;;;;;;;;;;;3556528;27;20303;-48
2021/06/12 08:33:10;;;;;;;;;;;;;;;;;;3556183;27;19927;-45
2021/06/12 08:34:51;;;;;;;;;;;;;;;;;;3556713;27;19934;-45
2021/06/12 08:36:32;;;;;;;;;;;;;;;;;;3566608;27;20371;-44
2021/06/12 08:38:13;;;;;;;;;;;;;;;;;;3562477;27;19934;-44
2021/06/12 08:39:55;;;;;;;;;;;;;;;;;;3555037;27;19933;-45
2021/06/12 08:41:36;;;;;;;;;;;;;;;;;;3556293;27;19927;-46
2021/06/12 08:43:17;;;;;;;;;;;;;;;;;;3554460;27;19927;-46
2021/06/12 08:44:58;;;;;;;;;;;;;;;;;;3556547;27;20379;-47
2021/06/12 08:46:39;;;;;;;;;;;;;;;;;;3557538;27;20003;-46
2021/06/12 08:48:20;;;;;;;;;;;;;;;;;;3555081;27;20384;-45
2021/06/12 08:50:03;;;;;;;;;;;;;;;;;;3557659;27;19927;-48
2021/06/12 08:51:44;;;;;;;;;;;;;;;;;;3555041;27;20023;-45
2021/06/12 08:53:26;;;;;;;;;;;;;;;;;;3557383;27;20022;-45
2021/06/12 08:55:07;;;;;;;;;;;;;;;;;;3554569;27;19982;-44
2021/06/12 08:56:48;;;;;;;;;;;;;;;;;;3556293;27;19976;-44
2021/06/12 08:58:29;;;;;;;;;;;;;;;;;;3557880;27;19930;-46
2021/06/12 09:00:09;;;;;;;;;;;;;;;;;;3554676;27;20021;-50
2021/06/12 09:01:50;;;;;;;;;;;;;;;;;;3555725;27;19977;-46
2021/06/12 09:03:32;;;;;;;;;;;;;;;;;;3554665;27;20303;-47
2021/06/12 09:05:13;;;;;;;;;;;;;;;;;;3558372;27;19966;-45
2021/06/12 09:06:54;;;;;;;;;;;;;;;;;;3554205;27;19927;-45
2021/06/12 09:08:35;;;;;;;;;;;;;;;;;;3557691;27;19938;-46
2021/06/12 09:10:16;;;;;;;;;;;;;;;;;;3555185;27;20388;-46
2021/06/12 09:11:56;;;;;;;;;;;;;;;;;;3554847;27;19962;-42
2021/06/12 09:13:37;;;;;;;;;;;;;;;;;;3556040;27;19950;-42
2021/06/12 09:15:18;;;;;;;;;;;;;;;;;;3554571;27;19927;-43
2021/06/12 09:16:59;;;;;;;;;;;;;;;;;;3555809;27;19931;-43
2021/06/12 09:18:40;;;;;;;;;;;;;;;;;;3554745;27;19927;-44
2021/06/12 09:20:21;;;;;;;;;;;;;;;;;;3558021;27;19927;-44
2021/06/12 09:22:02;;;;;;;;;;;;;;;;;;3556924;27;20488;-44
2021/06/12 09:23:43;;;;;;;;;;;;;;;;;;3555497;27;20375;-45
2021/06/12 09:25:24;;;;;;;;;;;;;;;;;;3557326;27;19927;-44
2021/06/12 09:27:05;;;;;;;;;;;;;;;;;;3554449;27;19981;-42
2021/06/12 09:28:45;;;;;;;;;;;;;;;;;;3555073;27;20431;-43
2021/06/12 09:30:26;;;;;;;;;;;;;;;;;;3554427;27;19927;-42
2021/06/12 09:32:07;;;;;;;;;;;;;;;;;;3555582;27;19938;-43
2021/06/12 09:33:48;;;;;;;;;;;;;;;;;;3556342;27;19927;-43
2021/06/12 09:35:29;;;;;;;;;;;;;;;;;;3554831;27;19934;-42
2021/06/12 09:37:11;;;;;;;;;;;;;;;;;;3556965;27;19931;-45
2021/06/12 09:38:55;;;;;;;;;;;;;;;;;;3554189;27;19931;-44
2021/06/12 09:40:36;;;;;;;;;;;;;;;;;;3560444;27;19934;-44
2021/06/12 09:42:17;;;;;;;;;;;;;;;;;;3554516;27;20038;-44
2021/06/12 09:43:58;;;;;;;;;;;;;;;;;;3556717;27;20021;-44
2021/06/12 09:45:45;;;;;;;;;;;;;;;;;;3554713;27;19964;-44
2021/06/12 09:47:26;;;;;;;;;;;;;;;;;;3554226;27;20021;-42
2021/06/12 09:49:07;;;;;;;;;;;;;;;;;;3555531;27;20411;-43
2021/06/12 09:50:48;;;;;;;;;;;;;;;;;;3554509;27;20060;-42
2021/06/12 09:52:29;;;;;;;;;;;;;;;;;;3556712;27;19962;-42
2021/06/12 09:54:10;;;;;;;;;;;;;;;;;;3554153;27;19927;-42
2021/06/12 09:55:51;;;;;;;;;;;;;;;;;;3556734;27;19933;-43
2021/06/12 09:57:32;;;;;;;;;;;;;;;;;;3555781;27;19974;-45
2021/06/12 09:59:13;;;;;;;;;;;;;;;;;;3555384;27;20402;-44
2021/06/12 10:00:53;;;;;;;;;;;;;;;;;;3555538;27;19973;-44
2021/06/12 10:02:34;;;;;;;;;;;;;;;;;;3554461;27;20458;-44
2021/06/12 10:04:16;;;;;;;;;;;;;;;;;;3555432;27;19931;-44
2021/06/12 10:05:57;;;;;;;;;;;;;;;;;;3554923;27;19927;-44
2021/06/12 10:07:38;;;;;;;;;;;;;;;;;;3555402;27;20067;-43
2021/06/12 10:09:21;;;;;;;;;;;;;;;;;;3554899;27;20341;-44
2021/06/12 10:11:02;;;;;;;;;;;;;;;;;;3554816;27;19962;-43
2021/06/12 10:12:43;;;;;;;;;;;;;;;;;;3555866;27;19979;-44
2021/06/12 10:14:24;;;;;;;;;;;;;;;;;;3564886;27;19933;-43
2021/06/12 10:16:05;;;;;;;;;;;;;;;;;;3560570;27;20449;-44
2021/06/12 10:17:46;;;;;;;;;;;;;;;;;;3554063;27;19927;-43
2021/06/12 10:19:27;;;;;;;;;;;;;;;;;;3557100;27;19974;-44
2021/06/12 10:21:08;;;;;;;;;;;;;;;;;;3554166;27;19941;-44
2021/06/12 10:22:50;;;;;;;;;;;;;;;;;;3556031;27;19970;-44
2021/06/12 10:24:32;;;;;;;;;;;;;;;;;;3556130;27;19964;-43
2021/06/12 10:26:13;;;;;;;;;;;;;;;;;;3553656;27;19984;-43
2021/06/12 10:27:54;;;;;;;;;;;;;;;;;;3555201;27;20489;-43
2021/06/12 10:29:35;;;;;;;;;;;;;;;;;;3553908;27;19931;-45
2021/06/12 10:31:16;;;;;;;;;;;;;;;;;;3555664;27;19927;-44
2021/06/12 10:32:57;;;;;;;;;;;;;;;;;;3553728;27;19967;-44
2021/06/12 10:34:39;;;;;;;;;;;;;;;;;;3555144;27;20015;-44
2021/06/12 10:36:20;;;;;;;;;;;;;;;;;;3559176;27;19926;-44
2021/06/12 10:38:01;;;;;;;;;;;;;;;;;;3553579;27;19930;-46
2021/06/12 10:39:43;;;;;;;;;;;;;;;;;;3554052;27;19934;-46
2021/06/12 10:41:24;;;;;;;;;;;;;;;;;;3554103;27;20429;-44
2021/06/12 10:43:05;;;;;;;;;;;;;;;;;;3555954;27;19931;-44
2021/06/12 10:44:46;;;;;;;;;;;;;;;;;;3553764;27;20303;-46
2021/06/12 10:46:27;;;;;;;;;;;;;;;;;;3554160;27;19927;-43
2021/06/12 10:48:11;;;;;;;;;;;;;;;;;;3556783;27;20299;-42
2021/06/12 10:49:52;;;;;;;;;;;;;;;;;;3553332;27;20021;-43
2021/06/12 10:51:33;;;;;;;;;;;;;;;;;;3554893;27;20430;-45
2021/06/12 10:53:14;;;;;;;;;;;;;;;;;;3553754;27;19927;-43
2021/06/12 10:54:55;;;;;;;;;;;;;;;;;;3555159;27;19931;-41
2021/06/12 10:56:36;;;;;;;;;;;;;;;;;;3554241;27;19966;-44
2021/06/12 10:58:17;;;;;;;;;;;;;;;;;;3556353;27;19927;-45
2021/06/12 10:59:58;;;;;;;;;;;;;;;;;;3554171;27;19934;-46
2021/06/12 11:01:39;;;;;;;;;;;;;;;;;;3553619;27;19927;-44
2021/06/12 11:03:20;;;;;;;;;;;;;;;;;;3554661;27;19934;-45
2021/06/12 11:05:02;;;;;;;;;;;;;;;;;;3553380;27;19927;-45
2021/06/12 11:06:44;;;;;;;;;;;;;;;;;;3556326;27;19934;-44
2021/06/12 11:08:26;;;;;;;;;;;;;;;;;;3553882;27;19931;-45
2021/06/12 11:10:07;;;;;;;;;;;;;;;;;;3556015;27;19970;-44
2021/06/12 11:11:47;;;;;;;;;;;;;;;;;;3555396;27;19972;-45
2021/06/12 11:13:29;;;;;;;;;;;;;;;;;;3556994;27;19926;-44
2021/06/12 11:15:10;;;;;;;;;;;;;;;;;;3561466;27;20018;-45
2021/06/12 11:16:51;;;;;;;;;;;;;;;;;;3553205;27;19934;-45
2021/06/12 11:18:31;;;;;;;;;;;;;;;;;;3553682;27;19934;-44
2021/06/12 11:20:14;;;;;;;;;;;;;;;;;;3553942;27;19974;-44
2021/06/12 11:21:55;;;;;;;;;;;;;;;;;;3561067;27;20218;-44
2021/06/12 11:23:36;;;;;;;;;;;;;;;;;;3565012;27;19930;-44
2021/06/12 11:25:17;;;;;;;;;;;;;;;;;;3553080;27;19962;-43
2021/06/12 11:26:58;;;;;;;;;;;;;;;;;;3554511;27;19952;-44
2021/06/12 11:28:40;;;;;;;;;;;;;;;;;;3553153;27;19935;-43
2021/06/12 11:30:22;;;;;;;;;;;;;;;;;;3553371;27;19927;-48